Time;durP1;ratioP1;P1;durP2;ratioP2;P2;SDS_P1;SDS_P2;PMS_P1;PMS_P2;Temp;Humidity;BMP_temperature;BMP_pressure;BME280_temperature;BME280_humidity;BME280_pressure;Samples;Min_cycle;Max_cycle;Signal;HPM_P1;HPM_P2
2022/12/16 00:01:31;;;;;;;1999.90;999.90;;;2.00;99.90;;;;;;5051691;28;20116;-76
2022/12/16 00:03:58;;;;;;;1999.90;999.90;;;2.00;99.90;;;;;;5050703;28;20393;-76
2022/12/16 00:06:28;;;;;;;1999.90;999.90;;;2.00;99.90;;;;;;5051649;28;20112;-75
2022/12/16 00:08:54;;;;;;;1999.90;999.90;;;2.00;99.90;;;;;;5050461;28;20032;-76
2022/12/16 00:11:20;;;;;;;1999.90;999.90;;;2.00;99.90;;;;;;5051712;28;20403;-76
2022/12/16 00:13:46;;;;;;;1999.90;999.90;;;2.00;99.90;;;;;;5051555;28;20031;-76
2022/12/16 00:16:14;;;;;;;1999.90;999.90;;;2.00;99.90;;;;;;5052029;28;20024;-76
2022/12/16 00:18:40;;;;;;;1999.90;999.90;;;2.00;99.90;;;;;;5051504;28;20021;-76
2022/12/16 00:21:06;;;;;;;1999.90;999.90;;;2.00;99.90;;;;;;5051344;28;20045;-76
2022/12/16 00:23:33;;;;;;;1999.90;999.90;;;2.00;99.90;;;;;;5051451;28;20025;-74
2022/12/16 00:25:59;;;;;;;1999.90;999.90;;;2.00;99.90;;;;;;5051281;28;20033;-76
2022/12/16 00:28:25;;;;;;;1999.90;999.90;;;2.00;99.90;;;;;;5051743;28;20028;-76
2022/12/16 00:30:53;;;;;;;1999.90;999.90;;;2.00;99.90;;;;;;5051550;28;20096;-76
2022/12/16 00:33:20;;;;;;;1999.90;999.90;;;2.00;99.90;;;;;;5051423;28;20053;-74
2022/12/16 00:35:46;;;;;;;1999.90;999.90;;;2.00;99.90;;;;;;5051376;28;20044;-76
2022/12/16 00:38:13;;;;;;;1999.90;999.90;;;2.10;99.90;;;;;;5051678;28;20408;-76
2022/12/16 00:40:39;;;;;;;1999.90;999.90;;;2.00;99.90;;;;;;5047217;28;20397;-76
2022/12/16 00:43:04;;;;;;;1999.90;999.90;;;2.10;99.90;;;;;;5034896;28;20025;-76
2022/12/16 00:45:30;;;;;;;1999.90;999.90;;;2.00;99.90;;;;;;5046320;28;20212;-76
2022/12/16 00:47:56;;;;;;;1999.90;999.90;;;2.10;99.90;;;;;;5037239;28;20037;-76
2022/12/16 00:50:21;;;;;;;1999.90;999.90;;;2.00;99.90;;;;;;5054859;28;20021;-76
2022/12/16 00:52:47;;;;;;;1999.90;999.90;;;2.00;99.90;;;;;;5054854;28;20392;-76
2022/12/16 00:55:14;;;;;;;1999.90;999.90;;;2.00;99.90;;;;;;5054961;28;20040;-75
2022/12/16 00:57:40;;;;;;;1999.90;999.90;;;2.00;99.90;;;;;;5053911;28;20539;-76
2022/12/16 01:00:11;;;;;;;1999.90;999.90;;;2.00;99.90;;;;;;5054882;28;20104;-76
2022/12/16 01:02:38;;;;;;;1999.90;999.90;;;2.10;99.90;;;;;;5054682;28;20075;-76
2022/12/16 01:05:04;;;;;;;1999.90;999.90;;;2.00;99.90;;;;;;5053036;28;20053;-76
2022/12/16 01:07:30;;;;;;;1999.90;999.90;;;2.00;99.90;;;;;;5054198;28;20146;-76
2022/12/16 01:09:55;;;;;;;1999.90;999.90;;;2.10;99.90;;;;;;5054631;28;20115;-75
2022/12/16 01:12:21;;;;;;;1999.90;999.90;;;2.10;99.90;;;;;;5054197;28;20396;-76
2022/12/16 01:14:46;;;;;;;1999.90;999.90;;;2.10;99.90;;;;;;5054650;28;20036;-76
2022/12/16 01:17:12;;;;;;;1999.90;999.90;;;2.00;99.90;;;;;;5053460;28;20496;-77
2022/12/16 01:19:37;;;;;;;1999.90;999.90;;;2.00;99.90;;;;;;5053972;28;20025;-75
2022/12/16 01:22:03;;;;;;;1999.90;999.90;;;2.10;99.90;;;;;;5053445;28;20028;-76
2022/12/16 01:24:29;;;;;;;1999.90;999.90;;;2.00;99.90;;;;;;5053804;28;20044;-76
2022/12/16 01:26:54;;;;;;;1999.90;999.90;;;2.10;99.90;;;;;;5053893;28;20028;-76
2022/12/16 01:29:20;;;;;;;1999.90;999.90;;;2.00;99.90;;;;;;5054067;28;20571;-76
2022/12/16 01:31:46;;;;;;;1999.90;999.90;;;2.10;99.90;;;;;;5054336;28;20024;-76
2022/12/16 01:34:11;;;;;;;1999.90;999.90;;;2.00;99.90;;;;;;5054382;28;20025;-76
2022/12/16 01:36:37;;;;;;;1999.90;999.90;;;2.00;99.90;;;;;;5052637;28;20032;-76
2022/12/16 01:39:02;;;;;;;1999.90;999.90;;;2.10;99.90;;;;;;5053815;28;20029;-76
2022/12/16 01:41:28;;;;;;;1999.90;999.90;;;2.10;99.90;;;;;;5042174;28;20033;-76
2022/12/16 01:44:15;;;;;;;1999.90;999.90;;;2.00;99.90;;;;;;5032984;28;20120;-76
2022/12/16 01:46:42;;;;;;;1999.90;999.90;;;2.10;99.90;;;;;;5033936;28;20064;-76
2022/12/16 01:49:23;;;;;;;1999.90;999.90;;;2.10;99.90;;;;;;5033871;28;20060;-76
2022/12/16 01:51:49;;;;;;;1999.90;999.90;;;2.10;99.90;;;;;;5033765;28;20032;-76
2022/12/16 01:54:21;;;;;;;1999.90;999.90;;;2.00;99.90;;;;;;5034056;28;20026;-76
2022/12/16 01:56:58;;;;;;;1999.90;999.90;;;2.00;99.90;;;;;;5032793;28;20373;-76
2022/12/16 01:59:26;;;;;;;1999.90;999.90;;;2.10;99.90;;;;;;5033678;28;20493;-76
2022/12/16 02:01:52;;;;;;;1999.90;999.90;;;2.00;99.90;;;;;;5032634;28;20030;-76
2022/12/16 02:04:17;;;;;;;1999.90;999.90;;;2.00;99.90;;;;;;5033840;28;20394;-76
2022/12/16 02:06:43;;;;;;;1999.90;999.90;;;2.00;99.90;;;;;;5032399;28;20053;-76
2022/12/16 02:09:11;;;;;;;1999.90;999.90;;;2.00;99.90;;;;;;5051927;28;20523;-76
2022/12/16 02:11:55;;;;;;;1999.90;999.90;;;2.00;99.90;;;;;;5053336;28;20100;-76
2022/12/16 02:14:33;;;;;;;1999.90;999.90;;;2.00;99.90;;;;;;5053309;28;20106;-76
2022/12/16 02:17:06;;;;;;;1999.90;999.90;;;2.00;99.90;;;;;;5053241;28;20045;-76
2022/12/16 02:19:52;;;;;;;1999.90;999.90;;;2.00;99.90;;;;;;5043953;28;20033;-76
2022/12/16 02:22:36;;;;;;;1999.90;999.90;;;2.00;99.90;;;;;;5053343;28;20049;-76
2022/12/16 02:25:02;;;;;;;1999.90;999.90;;;1.90;99.90;;;;;;5051492;28;20111;-76
2022/12/16 02:28:12;;;;;;;1999.90;999.90;;;1.90;99.90;;;;;;5052875;28;20108;-75
2022/12/16 02:30:46;;;;;;;1999.90;999.90;;;1.90;99.90;;;;;;5051597;28;20033;-76
2022/12/16 02:33:46;;;;;;;1999.90;999.90;;;2.00;99.90;;;;;;5053066;28;20024;-76
2022/12/16 02:36:41;;;;;;;1999.90;999.90;;;2.00;99.90;;;;;;5053176;28;20523;-76
2022/12/16 02:39:20;;;;;;;1999.90;999.90;;;2.00;99.90;;;;;;5052659;28;20127;-76
2022/12/16 02:41:55;;;;;;;1999.90;999.90;;;2.00;99.90;;;;;;5051418;28;20373;-76
2022/12/16 02:45:02;;;;;;;1999.90;999.90;;;2.00;99.90;;;;;;5052974;28;20025;-76
2022/12/16 02:47:30;;;;;;;1999.90;999.90;;;2.00;99.90;;;;;;4994446;28;20390;-76
2022/12/16 02:49:56;;;;;;;1999.90;999.90;;;2.00;99.90;;;;;;4994586;28;20038;-76
2022/12/16 02:52:26;;;;;;;1999.90;999.90;;;2.00;99.90;;;;;;5011085;28;20076;-76
2022/12/16 02:54:58;;;;;;;1999.90;999.90;;;2.10;99.90;;;;;;4994175;28;20034;-76
2022/12/16 02:58:10;;;;;;;1999.90;999.90;;;2.10;99.90;;;;;;5010024;28;20033;-76
2022/12/16 03:01:03;;;;;;;1999.90;999.90;;;2.00;99.90;;;;;;4989230;28;20042;-76
2022/12/16 03:03:47;;;;;;;1999.90;999.90;;;2.00;99.90;;;;;;5009848;28;20066;-76
2022/12/16 03:06:15;;;;;;;1999.90;999.90;;;2.00;99.90;;;;;;4994207;28;20062;-76
2022/12/16 03:08:47;;;;;;;1999.90;999.90;;;2.00;99.90;;;;;;5010212;28;20038;-76
2022/12/16 03:11:13;;;;;;;1999.90;999.90;;;2.10;99.90;;;;;;5010343;28;20055;-76
2022/12/16 03:13:43;;;;;;;1999.90;999.90;;;2.00;99.90;;;;;;5010426;28;20061;-76
2022/12/16 03:16:13;;;;;;;1999.90;999.90;;;2.00;99.90;;;;;;5011018;28;20042;-76
2022/12/16 03:18:43;;;;;;;1999.90;999.90;;;2.00;99.90;;;;;;5010218;28;20088;-74
2022/12/16 03:21:09;;;;;;;1999.90;999.90;;;2.00;99.90;;;;;;5025954;28;20120;-75
2022/12/16 03:24:00;;;;;;;1999.90;999.90;;;2.10;99.90;;;;;;5052200;28;20036;-77
2022/12/16 03:26:29;;;;;;;1999.90;999.90;;;2.00;99.90;;;;;;5052057;28;20059;-76
2022/12/16 03:29:00;;;;;;;1999.90;999.90;;;2.00;99.90;;;;;;5052262;28;20496;-76
2022/12/16 03:31:33;;;;;;;1999.90;999.90;;;2.00;99.90;;;;;;5052233;28;20067;-76
2022/12/16 03:34:03;;;;;;;1999.90;999.90;;;2.00;99.90;;;;;;5052543;28;20457;-76
2022/12/16 03:36:33;;;;;;;1999.90;999.90;;;2.00;99.90;;;;;;5052154;28;20029;-76
2022/12/16 03:39:00;;;;;;;1999.90;999.90;;;2.00;99.90;;;;;;5052106;28;20029;-76
2022/12/16 03:41:29;;;;;;;1999.90;999.90;;;2.10;99.90;;;;;;5051809;28;20120;-76
2022/12/16 03:43:55;;;;;;;1999.90;999.90;;;2.00;99.90;;;;;;5052495;28;20020;-76
2022/12/16 03:46:20;;;;;;;1999.90;999.90;;;2.00;99.90;;;;;;5052143;28;20074;-76
2022/12/16 03:48:50;;;;;;;1999.90;999.90;;;2.00;99.90;;;;;;5051803;28;20573;-76
2022/12/16 03:51:17;;;;;;;1999.90;999.90;;;2.00;99.90;;;;;;5051583;28;20033;-76
2022/12/16 03:53:44;;;;;;;1999.90;999.90;;;2.00;99.90;;;;;;5052105;28;20025;-76
2022/12/16 03:56:10;;;;;;;1999.90;999.90;;;2.00;99.90;;;;;;5051956;28;20029;-76
2022/12/16 03:58:39;;;;;;;1999.90;999.90;;;2.00;99.90;;;;;;5051349;28;20033;-76
2022/12/16 04:01:06;;;;;;;1999.90;999.90;;;2.00;99.90;;;;;;5051797;28;20036;-76
2022/12/16 04:03:32;;;;;;;1999.90;999.90;;;2.00;99.90;;;;;;5051580;28;20242;-76
2022/12/16 04:05:58;;;;;;;1999.90;999.90;;;2.00;99.90;;;;;;5051830;28;20542;-76
2022/12/16 04:08:23;;;;;;;1999.90;999.90;;;2.00;99.90;;;;;;5051746;28;20025;-76
2022/12/16 04:24:45;;;;;;;1999.90;999.90;;;1.90;99.90;;;;;;5035217;28;20056;-74
2022/12/16 04:27:26;;;;;;;1999.90;999.90;;;1.90;99.90;;;;;;5035116;28;20484;-76
